sensor_id;sensor_type;location;lat;lon;timestamp;pressure;altitude;pressure_sealevel;temperature;humidity
14882;BME280;7533;51.278;12.588;2022-10-31T00:01:18;100517.53;;;24.94;71.97
14882;BME280;7533;51.278;12.588;2022-10-31T00:06:21;100518.16;;;24.86;72.11
14882;BME280;7533;51.278;12.588;2022-10-31T00:11:25;100524.78;;;24.82;72.33
14882;BME280;7533;51.278;12.588;2022-10-31T00:16:29;100519.00;;;24.75;72.64
14882;BME280;7533;51.278;12.588;2022-10-31T00:21:32;100520.97;;;24.73;72.80
14882;BME280;7533;51.278;12.588;2022-10-31T00:26:37;100527.50;;;24.71;72.83
14882;BME280;7533;51.278;12.588;2022-10-31T00:31:39;100518.00;;;24.65;72.85
14882;BME280;7533;51.278;12.588;2022-10-31T00:36:42;100516.41;;;24.63;73.31
14882;BME280;7533;51.278;12.588;2022-10-31T00:41:48;100518.00;;;24.65;72.72
14882;BME280;7533;51.278;12.588;2022-10-31T00:46:51;100525.63;;;24.60;72.99
14882;BME280;7533;51.278;12.588;2022-10-31T00:51:55;100530.41;;;24.57;73.05
14882;BME280;7533;51.278;12.588;2022-10-31T00:57:00;100528.19;;;24.50;73.54
14882;BME280;7533;51.278;12.588;2022-10-31T01:02:02;100541.13;;;24.47;73.68
14882;BME280;7533;51.278;12.588;2022-10-31T01:07:05;100542.19;;;24.44;73.91
14882;BME280;7533;51.278;12.588;2022-10-31T01:12:09;100548.09;;;24.38;74.23
14882;BME280;7533;51.278;12.588;2022-10-31T01:17:13;100549.41;;;24.33;74.13
14882;BME280;7533;51.278;12.588;2022-10-31T01:22:16;100543.47;;;24.27;74.46
14882;BME280;7533;51.278;12.588;2022-10-31T01:27:20;100538.53;;;24.21;74.83
14882;BME280;7533;51.278;12.588;2022-10-31T01:32:23;100541.59;;;24.17;74.63
14882;BME280;7533;51.278;12.588;2022-10-31T01:37:26;100538.28;;;24.13;75.12
14882;BME280;7533;51.278;12.588;2022-10-31T01:42:30;100538.72;;;24.07;74.92
14882;BME280;7533;51.278;12.588;2022-10-31T01:47:39;100543.41;;;24.05;75.29
14882;BME280;7533;51.278;12.588;2022-10-31T01:52:45;100544.59;;;24.01;75.41
14882;BME280;7533;51.278;12.588;2022-10-31T01:57:53;100555.66;;;23.98;75.23
14882;BME280;7533;51.278;12.588;2022-10-31T02:02:58;100546.78;;;23.96;75.60
14882;BME280;7533;51.278;12.588;2022-10-31T02:08:04;100553.44;;;23.92;75.60
14882;BME280;7533;51.278;12.588;2022-10-31T02:13:10;100557.34;;;23.88;75.91
14882;BME280;7533;51.278;12.588;2022-10-31T02:18:20;100557.69;;;23.83;75.77
14882;BME280;7533;51.278;12.588;2022-10-31T02:23:53;100547.97;;;23.81;76.15
14882;BME280;7533;51.278;12.588;2022-10-31T02:29:47;100562.69;;;23.77;76.26
14882;BME280;7533;51.278;12.588;2022-10-31T02:35:07;100558.38;;;23.74;76.31
14882;BME280;7533;51.278;12.588;2022-10-31T02:40:17;100555.91;;;23.71;76.60
14882;BME280;7533;51.278;12.588;2022-10-31T02:45:58;100567.69;;;23.70;76.42
14882;BME280;7533;51.278;12.588;2022-10-31T02:51:08;100567.91;;;23.67;76.51
14882;BME280;7533;51.278;12.588;2022-10-31T02:56:14;100575.28;;;23.65;76.66
14882;BME280;7533;51.278;12.588;2022-10-31T03:01:44;100574.59;;;23.61;76.68
14882;BME280;7533;51.278;12.588;2022-10-31T03:06:56;100580.25;;;23.58;76.93
14882;BME280;7533;51.278;12.588;2022-10-31T03:12:07;100582.16;;;23.56;77.11
14882;BME280;7533;51.278;12.588;2022-10-31T03:17:15;100583.28;;;23.54;76.91
14882;BME280;7533;51.278;12.588;2022-10-31T03:22:25;100590.72;;;23.50;77.16
14882;BME280;7533;51.278;12.588;2022-10-31T03:27:33;100591.81;;;23.47;77.31
14882;BME280;7533;51.278;12.588;2022-10-31T03:32:40;100600.13;;;23.44;77.20
14882;BME280;7533;51.278;12.588;2022-10-31T03:37:46;100596.69;;;23.42;77.39
14882;BME280;7533;51.278;12.588;2022-10-31T03:42:54;100597.78;;;23.40;77.42
14882;BME280;7533;51.278;12.588;2022-10-31T03:48:00;100610.53;;;23.38;77.58
14882;BME280;7533;51.278;12.588;2022-10-31T03:53:09;100602.66;;;23.35;77.76
14882;BME280;7533;51.278;12.588;2022-10-31T03:58:19;100608.28;;;23.32;77.83
14882;BME280;7533;51.278;12.588;2022-10-31T04:03:26;100609.38;;;23.29;77.94
14882;BME280;7533;51.278;12.588;2022-10-31T04:08:38;100602.34;;;23.27;77.94
14882;BME280;7533;51.278;12.588;2022-10-31T04:13:48;100600.75;;;23.24;78.20
14882;BME280;7533;51.278;12.588;2022-10-31T04:18:56;100615.31;;;23.21;78.14
14882;BME280;7533;51.278;12.588;2022-10-31T04:24:00;100616.28;;;23.20;78.40
14882;BME280;7533;51.278;12.588;2022-10-31T04:29:04;100616.50;;;23.17;78.45
14882;BME280;7533;51.278;12.588;2022-10-31T04:34:07;100617.59;;;23.15;78.79
14882;BME280;7533;51.278;12.588;2022-10-31T04:39:11;100616.06;;;23.11;78.72
14882;BME280;7533;51.278;12.588;2022-10-31T04:44:20;100622.56;;;23.08;78.89
14882;BME280;7533;51.278;12.588;2022-10-31T04:49:25;100619.97;;;23.07;78.90
14882;BME280;7533;51.278;12.588;2022-10-31T04:54:30;100625.59;;;23.04;79.27
14882;BME280;7533;51.278;12.588;2022-10-31T04:59:52;100632.16;;;23.00;79.20
14882;BME280;7533;51.278;12.588;2022-10-31T05:04:57;100632.28;;;22.98;79.34
14882;BME280;7533;51.278;12.588;2022-10-31T05:10:01;100636.94;;;22.96;79.39
14882;BME280;7533;51.278;12.588;2022-10-31T05:15:06;100636.16;;;22.94;79.57
14882;BME280;7533;51.278;12.588;2022-10-31T05:20:32;100637.25;;;22.91;79.69
14882;BME280;7533;51.278;12.588;2022-10-31T05:25:42;100633.69;;;22.91;79.55
14882;BME280;7533;51.278;12.588;2022-10-31T05:30:46;100634.66;;;22.90;79.77
14882;BME280;7533;51.278;12.588;2022-10-31T05:35:50;100639.28;;;22.88;79.97
14882;BME280;7533;51.278;12.588;2022-10-31T05:41:09;100642.19;;;22.85;80.14
14882;BME280;7533;51.278;12.588;2022-10-31T05:46:16;100637.84;;;22.82;80.22
14882;BME280;7533;51.278;12.588;2022-10-31T05:51:39;100645.94;;;22.82;80.30
14882;BME280;7533;51.278;12.588;2022-10-31T05:56:44;100647.91;;;22.80;80.45
14882;BME280;7533;51.278;12.588;2022-10-31T06:01:47;100651.44;;;22.81;80.52
14882;BME280;7533;51.278;12.588;2022-10-31T06:07:04;100651.66;;;22.78;79.73
14882;BME280;7533;51.278;12.588;2022-10-31T06:12:08;100648.09;;;22.77;79.04
14882;BME280;7533;51.278;12.588;2022-10-31T06:17:43;100647.22;;;22.77;78.67
14882;BME280;7533;51.278;12.588;2022-10-31T06:22:59;100650.91;;;22.76;78.11
14882;BME280;7533;51.278;12.588;2022-10-31T06:28:04;100660.84;;;22.75;77.96
14882;BME280;7533;51.278;12.588;2022-10-31T06:33:23;100669.91;;;22.74;77.54
14882;BME280;7533;51.278;12.588;2022-10-31T06:38:35;100670.00;;;22.73;77.28
14882;BME280;7533;51.278;12.588;2022-10-31T06:43:45;100676.28;;;22.73;77.31
14882;BME280;7533;51.278;12.588;2022-10-31T06:49:05;100669.03;;;22.74;76.85
14882;BME280;7533;51.278;12.588;2022-10-31T06:54:24;100673.66;;;22.71;76.71
14882;BME280;7533;51.278;12.588;2022-10-31T06:59:28;100683.72;;;22.69;76.78
14882;BME280;7533;51.278;12.588;2022-10-31T07:04:52;100695.47;;;22.68;76.63
14882;BME280;7533;51.278;12.588;2022-10-31T07:09:56;100700.00;;;22.68;76.56
14882;BME280;7533;51.278;12.588;2022-10-31T07:15:19;100706.34;;;22.67;76.39
14882;BME280;7533;51.278;12.588;2022-10-31T07:20:24;100717.16;;;22.67;76.39
14882;BME280;7533;51.278;12.588;2022-10-31T07:25:26;100714.56;;;22.65;76.19
14882;BME280;7533;51.278;12.588;2022-10-31T07:30:50;100715.34;;;22.67;76.03
14882;BME280;7533;51.278;12.588;2022-10-31T07:35:54;100714.56;;;22.65;76.03
14882;BME280;7533;51.278;12.588;2022-10-31T07:41:03;100713.59;;;22.66;75.76
14882;BME280;7533;51.278;12.588;2022-10-31T07:46:13;100713.59;;;22.66;75.80
14882;BME280;7533;51.278;12.588;2022-10-31T07:51:54;100720.75;;;22.67;75.67
14882;BME280;7533;51.278;12.588;2022-10-31T07:57:20;100721.50;;;22.69;75.79
14882;BME280;7533;51.278;12.588;2022-10-31T08:02:27;100720.50;;;22.70;75.62
14882;BME280;7533;51.278;12.588;2022-10-31T08:07:48;100727.63;;;22.71;75.34
14882;BME280;7533;51.278;12.588;2022-10-31T08:12:56;100718.69;;;22.71;74.78
14882;BME280;7533;51.278;12.588;2022-10-31T08:18:00;100715.88;;;22.73;74.46
14882;BME280;7533;51.278;12.588;2022-10-31T08:23:08;100713.31;;;21.88;64.03
14882;BME280;7533;51.278;12.588;2022-10-31T08:28:12;100708.44;;;21.52;63.66
14882;BME280;7533;51.278;12.588;2022-10-31T08:33:18;100720.38;;;21.34;63.90
14882;BME280;7533;51.278;12.588;2022-10-31T08:38:53;100726.28;;;21.10;64.30
14882;BME280;7533;51.278;12.588;2022-10-31T08:44:03;100721.53;;;21.30;64.97
14882;BME280;7533;51.278;12.588;2022-10-31T08:49:07;100718.53;;;21.77;66.13
14882;BME280;7533;51.278;12.588;2022-10-31T08:54:10;100717.44;;;21.94;66.72
14882;BME280;7533;51.278;12.588;2022-10-31T08:59:36;100712.22;;;22.05;66.94
14882;BME280;7533;51.278;12.588;2022-10-31T09:04:59;100716.31;;;22.12;67.91
14882;BME280;7533;51.278;12.588;2022-10-31T09:10:02;100711.38;;;22.19;67.95
14882;BME280;7533;51.278;12.588;2022-10-31T09:15:09;100707.50;;;22.23;68.35
14882;BME280;7533;51.278;12.588;2022-10-31T09:20:21;100703.63;;;22.27;68.46
14882;BME280;7533;51.278;12.588;2022-10-31T09:25:26;100703.44;;;22.30;68.67
14882;BME280;7533;51.278;12.588;2022-10-31T09:30:59;100698.81;;;22.32;69.07
14882;BME280;7533;51.278;12.588;2022-10-31T09:36:35;100700.34;;;22.36;69.18
14882;BME280;7533;51.278;12.588;2022-10-31T09:41:52;100704.66;;;22.39;69.25
14882;BME280;7533;51.278;12.588;2022-10-31T09:47:07;100700.91;;;22.41;69.36
14882;BME280;7533;51.278;12.588;2022-10-31T09:52:24;100710.53;;;22.46;69.76
14882;BME280;7533;51.278;12.588;2022-10-31T09:57:33;100697.66;;;22.49;69.99
14882;BME280;7533;51.278;12.588;2022-10-31T10:02:40;100693.81;;;22.53;70.08
14882;BME280;7533;51.278;12.588;2022-10-31T10:07:54;100697.25;;;22.55;70.13
14882;BME280;7533;51.278;12.588;2022-10-31T10:13:42;100694.16;;;22.61;70.31
14882;BME280;7533;51.278;12.588;2022-10-31T10:19:01;100693.09;;;22.64;70.20
14882;BME280;7533;51.278;12.588;2022-10-31T10:24:17;100688.34;;;22.67;70.54
14882;BME280;7533;51.278;12.588;2022-10-31T10:29:31;100679.19;;;22.70;70.61
14882;BME280;7533;51.278;12.588;2022-10-31T10:34:41;100673.59;;;22.73;70.54
14882;BME280;7533;51.278;12.588;2022-10-31T10:39:50;100661.69;;;22.76;70.54
14882;BME280;7533;51.278;12.588;2022-10-31T10:44:53;100663.31;;;22.78;70.36
14882;BME280;7533;51.278;12.588;2022-10-31T10:50:17;100659.56;;;22.81;70.47
14882;BME280;7533;51.278;12.588;2022-10-31T10:55:32;100664.63;;;22.85;70.48
14882;BME280;7533;51.278;12.588;2022-10-31T11:00:40;100656.25;;;22.90;70.72
14882;BME280;7533;51.278;12.588;2022-10-31T11:05:48;100649.88;;;22.91;71.08
14882;BME280;7533;51.278;12.588;2022-10-31T11:10:58;100644.66;;;22.75;69.92
14882;BME280;7533;51.278;12.588;2022-10-31T11:16:04;100636.13;;;22.68;69.38
14882;BME280;7533;51.278;12.588;2022-10-31T11:21:21;100633.94;;;22.61;69.95
14882;BME280;7533;51.278;12.588;2022-10-31T11:26:27;100623.69;;;22.66;69.68
14882;BME280;7533;51.278;12.588;2022-10-31T11:31:30;100629.63;;;22.58;69.63
14882;BME280;7533;51.278;12.588;2022-10-31T11:36:38;100632.19;;;22.47;70.55
14882;BME280;7533;51.278;12.588;2022-10-31T11:41:43;100623.44;;;22.43;71.07
14882;BME280;7533;51.278;12.588;2022-10-31T11:46:49;100615.13;;;22.47;70.49
14882;BME280;7533;51.278;12.588;2022-10-31T11:51:55;100615.44;;;22.42;70.88
14882;BME280;7533;51.278;12.588;2022-10-31T11:57:01;100607.47;;;22.40;70.88
14882;BME280;7533;51.278;12.588;2022-10-31T12:02:18;100609.44;;;22.51;70.99
14882;BME280;7533;51.278;12.588;2022-10-31T12:07:22;100602.50;;;22.47;71.00
14882;BME280;7533;51.278;12.588;2022-10-31T12:12:56;100591.09;;;22.56;70.36
14882;BME280;7533;51.278;12.588;2022-10-31T12:18:35;100584.19;;;22.52;70.70
14882;BME280;7533;51.278;12.588;2022-10-31T12:23:51;100589.69;;;22.63;70.61
14882;BME280;7533;51.278;12.588;2022-10-31T12:29:08;100579.34;;;22.70;70.15
14882;BME280;7533;51.278;12.588;2022-10-31T12:34:39;100574.25;;;22.78;69.43
14882;BME280;7533;51.278;12.588;2022-10-31T12:39:56;100567.56;;;22.84;70.94
14882;BME280;7533;51.278;12.588;2022-10-31T12:45:34;100559.91;;;22.78;71.06
14882;BME280;7533;51.278;12.588;2022-10-31T12:50:51;100553.78;;;22.88;70.65
14882;BME280;7533;51.278;12.588;2022-10-31T12:56:07;100546.34;;;22.92;70.93
14882;BME280;7533;51.278;12.588;2022-10-31T13:01:18;100542.09;;;23.01;70.80
14882;BME280;7533;51.278;12.588;2022-10-31T13:06:24;100544.16;;;23.10;70.47
14882;BME280;7533;51.278;12.588;2022-10-31T13:11:34;100535.47;;;23.17;70.11
14882;BME280;7533;51.278;12.588;2022-10-31T13:16:42;100533.09;;;23.26;70.16
14882;BME280;7533;51.278;12.588;2022-10-31T13:21:55;100528.84;;;23.34;70.17
14882;BME280;7533;51.278;12.588;2022-10-31T13:27:02;100521.91;;;23.43;70.07
14882;BME280;7533;51.278;12.588;2022-10-31T13:32:11;100523.94;;;23.52;69.76
14882;BME280;7533;51.278;12.588;2022-10-31T13:37:24;100520.66;;;23.60;69.64
14882;BME280;7533;51.278;12.588;2022-10-31T13:42:41;100515.69;;;23.66;69.44
14882;BME280;7533;51.278;12.588;2022-10-31T13:48:00;100518.06;;;23.71;69.46
14882;BME280;7533;51.278;12.588;2022-10-31T13:53:11;100508.75;;;23.75;69.29
14882;BME280;7533;51.278;12.588;2022-10-31T13:58:23;100502.34;;;23.76;69.22
14882;BME280;7533;51.278;12.588;2022-10-31T14:03:30;100495.75;;;23.80;69.30
14882;BME280;7533;51.278;12.588;2022-10-31T14:08:53;100487.25;;;23.85;69.50
14882;BME280;7533;51.278;12.588;2022-10-31T14:13:58;100483.22;;;23.90;69.39
14882;BME280;7533;51.278;12.588;2022-10-31T14:19:06;100481.16;;;23.94;69.51
14882;BME280;7533;51.278;12.588;2022-10-31T14:24:14;100477.13;;;23.99;69.15
14882;BME280;7533;51.278;12.588;2022-10-31T14:29:26;100476.50;;;23.96;69.31
14882;BME280;7533;51.278;12.588;2022-10-31T14:34:33;100458.22;;;23.99;69.27
14882;BME280;7533;51.278;12.588;2022-10-31T14:39:45;100459.41;;;23.95;69.28
14882;BME280;7533;51.278;12.588;2022-10-31T14:50:44;100446.75;;;23.96;69.25
14882;BME280;7533;51.278;12.588;2022-10-31T14:55:50;100440.91;;;24.02;68.92
14882;BME280;7533;51.278;12.588;2022-10-31T15:00:56;100433.41;;;24.06;68.95
14882;BME280;7533;51.278;12.588;2022-10-31T15:06:03;100433.91;;;24.11;68.78
14882;BME280;7533;51.278;12.588;2022-10-31T15:11:12;100425.56;;;24.14;68.45
14882;BME280;7533;51.278;12.588;2022-10-31T15:16:18;100429.72;;;24.18;68.47
14882;BME280;7533;51.278;12.588;2022-10-31T15:21:25;100422.38;;;24.20;68.13
14882;BME280;7533;51.278;12.588;2022-10-31T15:26:33;100415.13;;;24.20;68.21
14882;BME280;7533;51.278;12.588;2022-10-31T15:31:37;100417.81;;;24.20;68.19
14882;BME280;7533;51.278;12.588;2022-10-31T15:36:41;100406.66;;;24.25;68.19
14882;BME280;7533;51.278;12.588;2022-10-31T15:41:49;100407.25;;;24.28;67.76
14882;BME280;7533;51.278;12.588;2022-10-31T15:46:57;100407.00;;;24.32;67.64
14882;BME280;7533;51.278;12.588;2022-10-31T15:52:10;100408.59;;;24.34;67.72
14882;BME280;7533;51.278;12.588;2022-10-31T15:57:14;100396.81;;;24.35;67.92
14882;BME280;7533;51.278;12.588;2022-10-31T16:02:19;100392.75;;;24.41;67.85
14882;BME280;7533;51.278;12.588;2022-10-31T16:07:24;100401.28;;;24.36;68.69
14882;BME280;7533;51.278;12.588;2022-10-31T16:12:34;100400.03;;;24.40;68.57
14882;BME280;7533;51.278;12.588;2022-10-31T16:17:40;100398.94;;;24.43;68.32
14882;BME280;7533;51.278;12.588;2022-10-31T16:22:49;100385.13;;;24.46;68.15
14882;BME280;7533;51.278;12.588;2022-10-31T16:27:54;100383.69;;;24.64;67.88
14882;BME280;7533;51.278;12.588;2022-10-31T16:32:59;100372.88;;;24.53;68.23
14882;BME280;7533;51.278;12.588;2022-10-31T16:38:05;100374.94;;;24.49;68.57
14882;BME280;7533;51.278;12.588;2022-10-31T16:43:11;100374.31;;;24.57;68.21
14882;BME280;7533;51.278;12.588;2022-10-31T16:48:16;100367.19;;;24.56;68.69
14882;BME280;7533;51.278;12.588;2022-10-31T16:53:21;100365.22;;;24.58;68.28
14882;BME280;7533;51.278;12.588;2022-10-31T16:58:27;100375.06;;;24.59;68.87
14882;BME280;7533;51.278;12.588;2022-10-31T17:03:31;100366.31;;;24.56;68.79
14882;BME280;7533;51.278;12.588;2022-10-31T17:08:35;100372.94;;;24.63;68.88
14882;BME280;7533;51.278;12.588;2022-10-31T17:13:38;100376.41;;;24.65;68.76
14882;BME280;7533;51.278;12.588;2022-10-31T17:18:40;100374.56;;;24.65;68.66
14882;BME280;7533;51.278;12.588;2022-10-31T17:23:45;100374.91;;;24.72;68.27
14882;BME280;7533;51.278;12.588;2022-10-31T17:28:48;100369.50;;;24.72;68.08
14882;BME280;7533;51.278;12.588;2022-10-31T17:33:53;100356.81;;;24.84;67.94
14882;BME280;7533;51.278;12.588;2022-10-31T17:39:05;100358.66;;;24.83;68.19
14882;BME280;7533;51.278;12.588;2022-10-31T17:44:10;100364.69;;;24.87;68.42
14882;BME280;7533;51.278;12.588;2022-10-31T17:49:13;100353.88;;;24.87;68.14
14882;BME280;7533;51.278;12.588;2022-10-31T17:54:17;100350.38;;;24.96;67.83
14882;BME280;7533;51.278;12.588;2022-10-31T17:59:23;100356.53;;;24.98;68.24
14882;BME280;7533;51.278;12.588;2022-10-31T18:04:27;100343.09;;;24.96;68.29
14882;BME280;7533;51.278;12.588;2022-10-31T18:09:31;100334.59;;;25.01;68.09
14882;BME280;7533;51.278;12.588;2022-10-31T18:14:34;100332.75;;;25.01;67.99
14882;BME280;7533;51.278;12.588;2022-10-31T18:19:36;100326.47;;;25.01;67.71
14882;BME280;7533;51.278;12.588;2022-10-31T18:24:41;100326.47;;;25.01;67.98
14882;BME280;7533;51.278;12.588;2022-10-31T18:29:43;100317.13;;;25.05;67.92
14882;BME280;7533;51.278;12.588;2022-10-31T18:34:46;100312.69;;;25.04;67.97
14882;BME280;7533;51.278;12.588;2022-10-31T18:39:50;100318.97;;;25.04;67.92
14882;BME280;7533;51.278;12.588;2022-10-31T18:44:53;100308.88;;;25.06;68.09
14882;BME280;7533;51.278;12.588;2022-10-31T18:50:07;100305.31;;;25.06;67.95
14882;BME280;7533;51.278;12.588;2022-10-31T18:55:12;100288.56;;;25.12;68.00
14882;BME280;7533;51.278;12.588;2022-10-31T19:00:15;100291.66;;;25.08;67.85
14882;BME280;7533;51.278;12.588;2022-10-31T19:05:19;100279.56;;;25.12;68.16
14882;BME280;7533;51.278;12.588;2022-10-31T19:10:23;100269.13;;;25.07;67.79
14882;BME280;7533;51.278;12.588;2022-10-31T19:15:26;100266.41;;;25.07;67.87
14882;BME280;7533;51.278;12.588;2022-10-31T19:20:29;100269.25;;;25.05;67.98
14882;BME280;7533;51.278;12.588;2022-10-31T19:25:33;100266.75;;;25.02;68.21
14882;BME280;7533;51.278;12.588;2022-10-31T19:30:36;100255.94;;;25.02;68.21
14882;BME280;7533;51.278;12.588;2022-10-31T19:35:39;100255.06;;;25.02;68.58
14882;BME280;7533;51.278;12.588;2022-10-31T19:40:43;100253.38;;;25.01;68.00
14882;BME280;7533;51.278;12.588;2022-10-31T19:45:52;100244.25;;;25.02;68.44
14882;BME280;7533;51.278;12.588;2022-10-31T19:50:59;100235.53;;;24.98;68.03
14882;BME280;7533;51.278;12.588;2022-10-31T19:56:09;100231.34;;;25.05;68.19
14882;BME280;7533;51.278;12.588;2022-10-31T20:01:14;100216.56;;;25.10;68.05
14882;BME280;7533;51.278;12.588;2022-10-31T20:06:21;100201.56;;;25.05;67.91
14882;BME280;7533;51.278;12.588;2022-10-31T20:11:27;100209.91;;;25.02;68.20
14882;BME280;7533;51.278;12.588;2022-10-31T20:16:30;100216.91;;;25.05;68.30
14882;BME280;7533;51.278;12.588;2022-10-31T20:21:35;100221.47;;;25.04;68.35
14882;BME280;7533;51.278;12.588;2022-10-31T20:26:40;100217.06;;;25.03;67.94
14882;BME280;7533;51.278;12.588;2022-10-31T20:31:44;100214.97;;;25.07;67.92
14882;BME280;7533;51.278;12.588;2022-10-31T20:36:47;100200.81;;;25.03;68.10
14882;BME280;7533;51.278;12.588;2022-10-31T20:41:52;100212.25;;;25.07;68.23
14882;BME280;7533;51.278;12.588;2022-10-31T20:46:54;100210.41;;;25.08;67.67
14882;BME280;7533;51.278;12.588;2022-10-31T20:51:58;100210.66;;;25.04;68.26
14882;BME280;7533;51.278;12.588;2022-10-31T20:57:03;100205.84;;;25.08;67.95
14882;BME280;7533;51.278;12.588;2022-10-31T21:02:05;100206.72;;;25.09;67.71
14882;BME280;7533;51.278;12.588;2022-10-31T21:07:08;100205.84;;;25.08;68.07
14882;BME280;7533;51.278;12.588;2022-10-31T21:12:12;100195.47;;;25.13;67.99
14882;BME280;7533;51.278;12.588;2022-10-31T21:17:15;100190.06;;;25.13;67.80
14882;BME280;7533;51.278;12.588;2022-10-31T21:22:18;100173.69;;;25.15;67.47
14882;BME280;7533;51.278;12.588;2022-10-31T21:27:22;100171.53;;;25.09;67.90
14882;BME280;7533;51.278;12.588;2022-10-31T21:32:25;100162.50;;;25.08;68.08
14882;BME280;7533;51.278;12.588;2022-10-31T21:37:28;100147.94;;;25.20;67.41
14882;BME280;7533;51.278;12.588;2022-10-31T21:42:32;100139.59;;;25.12;67.57
14882;BME280;7533;51.278;12.588;2022-10-31T21:47:34;100133.59;;;25.09;68.17
14882;BME280;7533;51.278;12.588;2022-10-31T21:52:37;100136.44;;;25.07;67.97
14882;BME280;7533;51.278;12.588;2022-10-31T21:57:41;100132.88;;;25.06;68.21
14882;BME280;7533;51.278;12.588;2022-10-31T22:02:44;100123.03;;;25.05;68.40
14882;BME280;7533;51.278;12.588;2022-10-31T22:07:46;100113.41;;;25.01;68.23
14882;BME280;7533;51.278;12.588;2022-10-31T22:12:50;100112.56;;;25.01;68.27
14882;BME280;7533;51.278;12.588;2022-10-31T22:17:53;100116.00;;;25.03;68.09
14882;BME280;7533;51.278;12.588;2022-10-31T22:22:56;100100.38;;;25.06;68.40
14882;BME280;7533;51.278;12.588;2022-10-31T22:28:00;100095.16;;;25.15;68.12
14882;BME280;7533;51.278;12.588;2022-10-31T22:33:07;100090.59;;;25.15;68.10
14882;BME280;7533;51.278;12.588;2022-10-31T22:38:09;100108.09;;;25.11;68.23
14882;BME280;7533;51.278;12.588;2022-10-31T22:43:14;100099.56;;;25.16;67.65
14882;BME280;7533;51.278;12.588;2022-10-31T22:48:16;100079.47;;;25.18;67.49
14882;BME280;7533;51.278;12.588;2022-10-31T22:53:19;100078.47;;;25.19;67.65
14882;BME280;7533;51.278;12.588;2022-10-31T22:58:23;100075.75;;;25.19;67.66
14882;BME280;7533;51.278;12.588;2022-10-31T23:03:26;100078.47;;;25.19;67.61
14882;BME280;7533;51.278;12.588;2022-10-31T23:08:30;100075.75;;;25.19;67.86
14882;BME280;7533;51.278;12.588;2022-10-31T23:13:35;100071.50;;;25.17;68.11
14882;BME280;7533;51.278;12.588;2022-10-31T23:18:55;100058.09;;;25.15;68.35
14882;BME280;7533;51.278;12.588;2022-10-31T23:23:58;100055.63;;;25.12;68.52
14882;BME280;7533;51.278;12.588;2022-10-31T23:29:02;100062.44;;;25.06;68.64
14882;BME280;7533;51.278;12.588;2022-10-31T23:34:04;100055.84;;;24.99;68.57
14882;BME280;7533;51.278;12.588;2022-10-31T23:39:07;100051.66;;;24.95;69.06
14882;BME280;7533;51.278;12.588;2022-10-31T23:44:11;100049.78;;;24.86;69.51
14882;BME280;7533;51.278;12.588;2022-10-31T23:49:14;100040.06;;;24.84;69.29
14882;BME280;7533;51.278;12.588;2022-10-31T23:54:17;100028.06;;;24.76;69.58
14882;BME280;7533;51.278;12.588;2022-10-31T23:59:21;100019.75;;;24.68;70.09
